Warren, Connecticut
Current Conditions -  °F | °C
As of 3:15 AM on Saturday 29 Nov 2014 (Local Time) from KOXC Reporting Station
Few Clouds Few Clouds  
Wind Chill: 18°   Ceiling: Unl
Heat Index: 18°   Visibility: 10mi
Dew Point:   Wind: 0mph
Humidity: 68%   Direction: NA
Pressure: 30.25"   Gusts: NA
Location:  41.6879°N, 73.3378°W
Report Text: KOXC 290715Z 00000KT 10SM FEW120 M08/M13 A3025 RMK AO1
Loading
Personal Weather Stations






























Interactive Weather Map New forecast layout! Learn more

10-Day Weather Forecast

Advertisements
Track Severe Weather on mobile